Latest Weather Observations for Maria Island

IDT60801

Issued at 5:21 pm EST Tuesday 20 August 2019 (issued every 10 minutes, with the page automatically refreshed every 10 minutes)

About weather observations | Map of weather stations | Latest weather observations for TAS | Other Formats
Station Details ID: 092124 Name: MARIA ISLAND (POINT LESUEUR) Lat: -42.66 Lon: 148.02 Height: 28.0 m
Data from the previous 72 hours. | See also: Recent months at Maria Island
Date/Time
EST
Temp
°C
App
Temp
°C
Dew
Point
°C
Rel
Hum
%
Delta-T
°C
Wind Press
QNH
hPa
Press
MSL
hPa
Rain since
9am
mm
Dir  Spd
km/h
Gust
km/h
Spd
kts
Gust
kts
20/05:00pm 13.2 1.5 6.3 63 3.3 WNW 57 80 31 43 995.5 995.6 0.0
20/04:38pm 13.5 1.8 6.4 62 3.4 W 57 78 31 42 995.9 996.0 0.0
20/04:30pm 13.8 2.3 6.2 60 3.6 W 56 70 30 38 996.1 996.2 0.0
20/04:00pm 14.5 1.9 5.6 55 4.3 W 61 82 33 44 995.9 996.0 0.0
20/03:56pm 14.7 2.5 5.8 55 4.2 W 59 78 32 42 995.9 996.0 0.0
20/03:55pm 14.8 2.7 6.1 56 4.2 W 59 74 32 40 996.1 996.2 0.0
20/03:30pm 15.5 0.4 5.4 51 4.8 W 74 98 40 53 995.6 995.7 0.0
20/03:15pm 15.8 2.4 5.4 50 5.0 W 65 98 35 53 995.1 995.2 0.0
20/03:00pm 15.9 3.7 5.8 51 4.9 W 59 80 32 43 996.3 996.4 0.0
20/02:49pm 16.3 5.3 5.0 47 5.4 W 52 82 28 44 996.4 996.5 0.0
20/02:48pm 16.3 5.7 5.0 47 5.4 W 50 74 27 40 996.4 996.5 0.0
20/02:42pm 16.5 7.7 5.5 48 5.3 WNW 41 61 22 33 997.1 997.2 0.0
20/02:30pm 16.4 7.2 5.4 48 5.3 WNW 43 57 23 31 997.2 997.3 0.0
20/02:00pm 16.7 7.5 5.6 48 5.4 WNW 43 61 23 33 997.7 997.8 0.0
20/01:32pm 16.9 7.0 4.9 45 5.7 W 46 67 25 36 998.6 998.7 0.0
20/01:30pm 17.0 6.6 5.9 48 5.4 WNW 50 67 27 36 998.6 998.7 0.0
20/01:06pm 17.5 9.9 5.8 46 5.7 W 35 59 19 32 998.6 998.7 0.0
20/01:00pm 17.3 10.6 5.6 46 5.7 W 30 52 16 28 998.8 998.9 0.0
20/12:30pm 17.3 9.7 5.9 47 5.6 WNW 35 61 19 33 999.8 999.8 0.0
20/12:05pm 16.6 7.5 6.1 50 5.1 WNW 43 61 23 33 1000.7 1000.7 0.0
20/12:00pm 16.4 7.2 6.5 52 4.9 WNW 44 61 24 33 1000.5 1000.5 0.0
20/11:30am 16.0 6.9 7.0 55 4.4 W 44 65 24 35 1001.0 1001.0 0.0
20/11:18am 16.3 9.3 7.0 54 4.6 WNW 33 54 18 29 1001.3 1001.3 0.0
20/11:00am 16.1 10.2 7.3 56 4.4 WNW 28 37 15 20 1001.7 1001.7 0.0
20/10:37am 15.7 9.1 7.7 59 4.0 WNW 32 50 17 27 1002.1 1002.1 0.0
20/10:30am 15.7 8.1 7.5 58 4.1 WNW 37 50 20 27 1002.1 1002.1 0.0
20/10:00am 15.0 6.1 6.8 58 4.0 WNW 43 63 23 34 1002.4 1002.4 0.0
20/09:48am 15.0 7.3 7.1 59 3.9 WNW 37 57 20 31 1002.9 1002.9 0.0
20/09:30am 14.7 6.9 6.5 58 4.0 W 37 52 20 28 1003.0 1003.0 0.0
20/09:00am 14.4 5.8 6.3 58 3.9 W 41 56 22 30 1003.0 1003.0 0.0
20/08:39am 14.0 7.7 5.9 58 3.9 WNW 28 46 15 25 1003.1 1003.1 0.0
20/08:30am 13.7 7.1 6.1 60 3.6 W 30 44 16 24 1003.4 1003.4 0.0
20/08:00am 13.2 6.5 5.4 59 3.7 W 30 46 16 25 1003.6 1003.6 0.0
20/07:30am 12.9 6.1 5.3 60 3.5 W 30 44 16 24 1003.8 1003.8 0.0
20/07:26am 12.9 6.5 5.1 59 3.6 W 28 44 15 24 1003.8 1003.8 0.0
20/07:00am 12.1 8.1 5.0 62 3.3 NNW 15 26 8 14 1004.2 1004.2 0.0
20/06:30am 12.6 8.3 5.1 60 3.5 W 17 37 9 20 1003.8 1003.8 0.0
20/06:00am 11.3 7.0 5.4 67 2.7 N 17 26 9 14 1003.7 1003.7 0.0
20/05:30am 11.9 7.0 4.9 62 3.2 NW 20 32 11 17 1003.9 1003.9 0.0
20/05:00am 12.1 7.2 4.3 59 3.5 WNW 19 26 10 14 1004.5 1004.5 0.0
20/04:30am 12.2 5.7 4.9 61 3.3 W 28 43 15 23 1004.4 1004.4 0.0
20/04:15am 12.0 5.5 4.5 60 3.4 W 28 43 15 23 1004.2 1004.2 0.0
20/04:00am 11.7 7.2 4.4 61 3.3 WSW 17 24 9 13 1004.5 1004.5 0.0
20/03:30am 11.7 8.2 3.5 57 3.6 W 11 28 6 15 1004.4 1004.4 0.0
20/03:00am 11.6 7.8 4.1 60 3.4 W 13 19 7 10 1004.7 1004.7 0.0
20/02:30am 11.7 6.7 4.4 61 3.3 W 20 33 11 18 1005.1 1005.1 0.0
20/02:00am 11.8 5.6 4.3 60 3.4 W 26 39 14 21 1005.3 1005.3 0.0
20/01:30am 11.7 4.7 4.2 60 3.4 W 30 41 16 22 1005.3 1005.3 0.0
20/01:00am 11.6 4.7 4.6 62 3.2 WSW 30 50 16 27 1005.0 1005.0 0.0
20/12:30am 11.4 6.6 4.4 62 3.2 W 19 35 10 19 1005.6 1005.6 0.0
20/12:00am 11.1 5.7 4.6 64 2.9 W 22 32 12 17 1005.6 1005.6 0.0
 
Date/Time
EST
Temp
°C
App
Temp
°C
Dew
Point
°C
Rel
Hum
%
Delta-T
°C
Wind Press
QNH
hPa
Press
MSL
hPa
Rain since
9am
mm
Dir  Spd
km/h
Gust
km/h
Spd
kts
Gust
kts
19/11:30pm 10.3 5.9 4.5 67 2.6 WNW 17 30 9 16 1005.6 1005.6 0.0
19/11:00pm 10.1 5.3 4.5 68 2.5 WNW 19 26 10 14 1005.7 1005.7 0.0
19/10:30pm 9.9 5.1 4.7 70 2.3 NW 19 26 10 14 1005.8 1005.8 0.0
19/10:00pm 9.4 4.4 4.4 71 2.2 NNW 20 26 11 14 1005.9 1005.9 0.0
19/09:30pm 9.2 3.3 4.0 70 2.3 NNW 24 30 13 16 1006.0 1006.0 0.0
19/09:00pm 9.0 3.0 3.6 69 2.3 NNW 24 28 13 15 1006.1 1006.1 0.0
19/08:30pm 8.6 3.0 3.2 69 2.3 NW 22 28 12 15 1006.1 1006.1 0.0
19/08:00pm 8.4 3.7 3.1 69 2.3 NW 17 28 9 15 1006.2 1006.2 0.0
19/07:30pm 8.2 4.2 2.7 68 2.3 NW 13 24 7 13 1006.2 1006.2 0.0
19/07:00pm 8.1 3.0 2.8 69 2.2 WNW 19 24 10 13 1006.1 1006.1 0.0
19/06:30pm 8.0 3.1 2.3 67 2.4 NW 17 24 9 13 1006.0 1006.0 0.0
19/06:00pm 8.3 3.4 1.7 63 2.7 WNW 17 24 9 13 1005.8 1005.8 0.0
19/05:30pm 8.7 3.3 1.1 59 3.1 W 19 26 10 14 1005.8 1005.8 0.0
19/05:00pm 8.6 2.6 1.3 60 3.0 W 22 33 12 18 1005.8 1005.8 0.0
19/04:30pm 8.9 2.5 0.9 57 3.2 W 24 39 13 21 1005.2 1005.2 0.0
19/04:00pm 9.1 2.6 0.3 54 3.5 WSW 24 37 13 20 1005.2 1005.2 0.0
19/03:30pm 9.7 2.8 0.3 52 3.8 W 26 41 14 22 1005.0 1005.0 0.0
19/03:00pm 9.2 3.2 0.9 56 3.4 SW 22 30 12 16 1004.7 1004.7 0.0
19/02:30pm 9.8 3.8 1.2 55 3.5 WSW 22 37 12 20 1004.5 1004.5 0.0
19/02:24pm 9.1 1.2 1.3 58 3.2 WSW 32 50 17 27 1004.5 1004.5 0.0
19/02:00pm 9.0 2.3 1.2 58 3.2 WSW 26 33 14 18 1004.4 1004.4 0.0
19/01:30pm 8.5 1.9 2.1 64 2.7 W 26 35 14 19 1004.3 1004.3 0.0
19/01:00pm 8.0 2.8 3.3 72 2.0 WSW 20 30 11 16 1004.7 1004.7 0.0
19/12:54pm 7.7 2.5 3.4 74 1.8 SW 20 28 11 15 1004.7 1004.7 0.0
19/12:40pm 6.3 -3.5 2.4 76 1.6 SW 43 61 23 33 1004.8 1004.8 0.0
19/12:30pm 8.2 -1.8 1.1 61 2.9 SW 43 57 23 31 1004.2 1004.2 0.0
19/12:00pm 9.2 1.2 0.6 55 3.5 SW 32 41 17 22 1004.2 1004.2 0.0
19/11:30am 8.9 1.3 0.6 56 3.3 W 30 44 16 24 1004.1 1004.1 0.0
19/11:26am 8.9 0.9 0.1 54 3.5 W 32 52 17 28 1004.2 1004.2 0.0
19/11:00am 8.6 0.7 1.1 59 3.1 WSW 32 39 17 21 1004.2 1004.2 0.0
19/10:40am 8.3 0.6 -0.2 55 3.3 WSW 30 50 16 27 1003.9 1003.9 0.0
19/10:30am 8.3 1.0 0.3 57 3.2 W 28 41 15 22 1003.7 1003.7 0.0
19/10:00am 7.9 -0.2 -0.1 57 3.2 WSW 32 44 17 24 1003.9 1003.9 0.0
19/09:59am 8.0 0.3 0.0 57 3.1 WSW 30 44 16 24 1003.8 1003.8 0.0
19/09:30am 8.0 2.8 0.3 58 3.1 WSW 17 24 9 13 1003.6 1003.6 0.0
19/09:00am 7.2 1.7 0.4 62 2.7 WSW 19 26 10 14 1003.4 1003.4 0.4
19/08:30am 6.7 1.2 0.8 66 2.3 W 19 28 10 15 1003.0 1003.0 0.4
19/08:00am 6.6 -1.5 1.1 68 2.2 WSW 33 43 18 23 1002.3 1002.3 0.4
19/07:30am 6.9 -3.3 1.2 67 2.3 SW 44 59 24 32 1001.4 1001.4 0.4
19/07:17am 6.8 -1.3 1.1 67 2.3 WSW 33 54 18 29 1001.1 1001.1 0.4
19/07:00am 6.7 -0.4 1.2 68 2.2 WSW 28 43 15 23 1000.7 1000.7 0.4
19/06:30am 6.8 -1.3 1.1 67 2.3 WSW 33 44 18 24 999.9 999.9 0.4
19/06:00am 7.3 -2.6 1.6 67 2.3 SW 43 56 23 30 999.2 999.2 0.4
19/05:30am 7.5 -2.4 1.4 65 2.5 SW 43 50 23 27 998.6 998.7 0.4
19/05:00am 7.7 -1.8 2.0 67 2.4 SW 41 52 22 28 998.2 998.3 0.4
19/04:30am 8.0 -2.1 1.6 64 2.6 SW 44 57 24 31 997.8 997.9 0.4
19/04:21am 8.1 0.2 2.1 66 2.5 SW 33 57 18 31 997.8 997.9 0.4
19/04:00am 8.1 1.6 2.6 68 2.3 WSW 26 35 14 19 998.1 998.2 0.4
19/03:30am 8.4 -0.2 2.4 66 2.5 SW 37 46 20 25 997.5 997.6 0.4
19/03:00am 8.5 1.3 2.9 68 2.4 SW 30 43 16 23 997.4 997.5 0.4
19/02:30am 8.7 1.1 2.7 66 2.5 WSW 32 41 17 22 997.1 997.2 0.4
19/02:00am 8.9 2.4 2.5 64 2.7 WSW 26 35 14 19 997.5 997.6 0.4
19/01:30am 9.0 2.1 2.3 63 2.8 WSW 28 39 15 21 997.6 997.7 0.4
19/01:00am 9.2 2.8 3.2 66 2.6 SW 26 33 14 18 997.5 997.6 0.4
19/12:30am 9.1 3.3 4.3 72 2.1 WSW 24 33 13 18 997.7 997.8 0.4
19/12:00am 9.0 2.5 4.6 74 2.0 SW 28 37 15 20 997.3 997.4 0.4
 
Date/Time
EST
Temp
°C
App
Temp
°C
Dew
Point
°C
Rel
Hum
%
Delta-T
°C
Wind Press
QNH
hPa
Press
MSL
hPa
Rain since
9am
mm
Dir  Spd
km/h
Gust
km/h
Spd
kts
Gust
kts
18/11:30pm 9.2 3.3 5.6 78 1.6 SSW 26 32 14 17 997.7 997.8 0.4
18/11:00pm 8.6 1.4 6.1 84 1.2 SW 33 50 18 27 998.3 998.4 0.4
18/10:51pm 8.9 1.9 6.0 82 1.3 SW 32 50 17 27 998.3 998.4 0.2
18/10:39pm 10.3 5.6 6.1 75 1.9 W 20 39 11 21 998.3 998.4 0.0
18/10:30pm 10.6 6.9 6.2 74 2.1 WNW 15 19 8 10 998.2 998.3 0.0
18/10:00pm 10.8 5.8 6.4 74 2.1 NW 22 26 12 14 997.7 997.8 0.0
18/09:30pm 10.9 6.3 6.3 73 2.2 NW 20 26 11 14 998.1 998.2 0.0
18/09:00pm 10.8 5.7 6.0 72 2.2 NW 22 28 12 15 998.2 998.3 0.0
18/08:30pm 11.2 4.0 5.9 70 2.5 NW 33 43 18 23 998.4 998.5 0.0
18/08:00pm 12.0 5.2 6.9 71 2.5 N 32 39 17 21 997.8 997.9 0.0
18/07:45pm 12.1 4.7 6.6 69 2.6 NNW 35 43 19 23 998.0 998.1 0.0
18/07:30pm 12.4 4.6 6.5 67 2.8 WNW 37 46 20 25 998.1 998.2 0.0
18/07:09pm 13.1 3.9 6.2 63 3.3 NW 44 65 24 35 997.8 997.9 0.0
18/07:00pm 13.4 2.2 6.0 61 3.5 NW 54 69 29 37 997.5 997.6 0.0
18/06:49pm 13.5 4.6 6.8 64 3.2 NW 43 61 23 33 997.8 997.9 0.0
18/06:30pm 14.2 3.4 5.8 57 4.0 NW 52 65 28 35 997.1 997.2 0.0
18/06:21pm 14.4 5.1 5.7 56 4.1 NNW 44 65 24 35 996.8 996.9 0.0
18/06:00pm 14.9 4.3 4.9 51 4.7 NNW 50 59 27 32 996.2 996.3 0.0
18/05:30pm 15.0 5.7 5.2 52 4.6 NNW 43 54 23 29 996.3 996.4 0.0
18/05:00pm 15.7 5.0 4.7 48 5.2 NNW 50 70 27 38 996.5 996.6 0.0
18/04:58pm 15.3 5.1 5.0 50 4.9 NNW 48 70 26 38 996.3 996.4 0.0
18/04:30pm 15.3 5.9 5.5 52 4.7 NNW 44 57 24 31 997.1 997.2 0.0
18/04:24pm 15.4 7.7 5.3 51 4.8 NNW 35 57 19 31 997.0 997.1 0.0
18/04:00pm 14.7 7.8 7.3 61 3.7 N 33 43 18 23 997.5 997.6 0.0
18/03:30pm 14.4 7.7 8.1 66 3.1 N 33 43 18 23 997.7 997.8 0.0
18/03:00pm 14.2 6.5 8.6 69 2.8 N 39 50 21 27 998.2 998.3 0.0
18/02:30pm 14.4 6.3 8.8 69 2.8 N 41 52 22 28 998.3 998.4 0.0
18/02:00pm 15.4 7.6 6.7 56 4.3 NNE 37 48 20 26 998.6 998.7 0.0
18/01:30pm 15.3 5.5 5.5 52 4.7 N 46 59 25 32 999.2 999.2 0.0
18/01:00pm 15.6 6.2 5.2 50 5.0 N 44 59 24 32 999.3 999.3 0.0
18/12:30pm 15.0 4.8 5.0 51 4.7 N 48 57 26 31 1000.3 1000.3 0.0
18/12:00pm 14.5 5.8 5.8 56 4.2 N 41 52 22 28 1001.6 1001.6 0.0
18/11:30am 12.6 4.2 7.5 71 2.5 N 41 48 22 26 1002.6 1002.6 0.0
18/11:00am 12.3 4.9 6.8 69 2.6 N 35 43 19 23 1003.8 1003.8 0.0
18/10:30am 12.4 4.8 7.7 73 2.3 N 37 44 20 24 1004.3 1004.3 0.0
18/10:00am 11.9 4.5 8.2 78 1.8 N 37 43 20 23 1005.1 1005.1 0.0
18/09:30am 11.8 5.2 8.6 81 1.6 N 33 39 18 21 1005.5 1005.5 0.0
18/09:00am 11.7 4.4 8.9 83 1.4 N 37 43 20 23 1006.0 1006.0 0.0
18/08:30am 11.8 4.4 8.5 80 1.6 N 37 43 20 23 1006.1 1006.1 0.0
18/08:00am 11.5 4.5 8.5 82 1.5 N 35 41 19 22 1006.9 1006.9 0.0
18/07:30am 10.9 4.4 8.8 87 1.0 N 33 37 18 20 1006.9 1006.9 0.0
18/07:00am 10.5 4.5 8.6 88 0.9 N 30 33 16 18 1007.3 1007.3 0.0
18/06:30am 10.4 4.7 8.3 87 1.0 N 28 35 15 19 1007.5 1007.5 0.0
18/06:00am 10.0 3.5 8.1 88 0.9 N 32 35 17 19 1008.1 1008.1 0.0
18/05:30am 9.8 3.7 8.1 89 0.8 NNW 30 32 16 17 1008.5 1008.5 0.0
18/05:00am 9.7 3.6 8.1 90 0.8 NNW 30 32 16 17 1008.3 1008.3 0.0
18/04:30am 9.7 5.1 8.1 90 0.8 NNW 22 28 12 15 1008.8 1008.8 0.0
18/04:00am 9.7 5.1 8.1 90 0.8 NNW 22 24 12 13 1009.6 1009.6 0.0
18/03:30am 10.4 4.5 9.0 91 0.7 N 30 35 16 19 1010.1 1010.1 0.0
18/03:00am 10.3 3.0 8.6 89 0.8 N 37 44 20 24 1010.3 1010.3 0.0
18/02:30am 10.6 5.4 8.7 88 0.9 N 26 32 14 17 1011.9 1011.9 0.0
18/02:00am 10.3 5.3 7.9 85 1.2 N 24 28 13 15 1012.8 1012.8 0.0
18/01:30am 10.1 4.6 7.7 85 1.2 N 26 32 14 17 1013.1 1013.1 0.0
18/01:00am 10.0 3.0 6.9 81 1.5 N 33 39 18 21 1013.5 1013.5 0.0
18/12:30am 10.0 1.3 5.8 75 1.9 N 41 44 22 24 1013.7 1013.7 0.0
18/12:00am 10.1 2.0 6.8 80 1.6 N 39 50 21 27 1013.8 1013.8 0.0
 
Date/Time
EST
Temp
°C
App
Temp
°C
Dew
Point
°C
Rel
Hum
%
Delta-T
°C
Wind Press
QNH
hPa
Press
MSL
hPa
Rain since
9am
mm
Dir  Spd
km/h
Gust
km/h
Spd
kts
Gust
kts
17/11:30pm 9.6 3.3 5.8 77 1.7 NNW 28 35 15 19 1014.7 1014.7 0.0
17/11:00pm 9.9 2.7 5.9 76 1.8 N 33 41 18 22 1014.9 1014.9 0.0
17/10:30pm 9.6 3.2 5.4 75 1.9 N 28 33 15 18 1015.9 1015.9 0.0
17/10:00pm 9.8 3.2 6.0 77 1.7 N 30 35 16 19 1016.0 1016.0 0.0
17/09:30pm 9.8 2.2 5.8 76 1.8 N 35 41 19 22 1016.2 1016.2 0.0
17/09:00pm 10.1 1.7 5.7 74 2.0 N 39 43 21 23 1016.6 1016.6 0.0
17/08:30pm 10.3 1.6 6.1 75 1.9 N 41 48 22 26 1016.8 1016.8 0.0
17/08:00pm 10.5 0.6 6.8 78 1.7 N 48 54 26 29 1016.7 1016.7 0.0
17/07:30pm 10.8 1.0 7.1 78 1.8 N 48 56 26 30 1016.6 1016.6 0.0
17/07:00pm 10.9 1.8 6.8 76 1.9 N 44 52 24 28 1016.8 1016.8 0.0
17/06:30pm 10.9 2.7 6.6 75 2.0 N 39 46 21 25 1017.0 1017.0 0.0
17/06:00pm 11.1 2.5 6.5 73 2.2 N 41 48 22 26 1017.0 1017.0 0.0
17/05:30pm 11.1 2.1 6.3 72 2.3 N 43 50 23 27 1016.8 1016.8 0.0

Other formats

Comma delimited format used in spreadsheet applications
http://www.bom.gov.au/fwo/IDT60801/IDT60801.95988.axf

JavaScript Object Notation format (JSON) in row-major order
http://www.bom.gov.au/fwo/IDT60801/IDT60801.95988.json

Data quality

Most of these data are generated automatically and are frequently updated. Quality checks on data are not normally performed. It is possible for incorrect values to appear. Refer to information at About Latest Weather Observations and please check the disclaimer before using these data.